Time;durP1;ratioP1;P1;durP2;ratioP2;P2;SDS_P1;SDS_P2;PMS_P1;PMS_P2;Temp;Humidity;BMP_temperature;BMP_pressure;BME280_temperature;BME280_humidity;BME280_pressure;Samples;Min_cycle;Max_cycle;Signal;HPM_P1;HPM_P2
2022/07/31 00:01:57;;;;;;;5.72;5.10;;;;;;;;;;4981353;28;20066;-75
2022/07/31 00:04:27;;;;;;;5.90;4.30;;;;;;;;;;4980272;28;20080;-75
2022/07/31 00:06:52;;;;;;;6.38;5.20;;;;;;;;;;4980641;28;20030;-75
2022/07/31 00:09:17;;;;;;;8.40;6.80;;;;;;;;;;4978035;28;20129;-75
2022/07/31 00:11:43;;;;;;;7.60;6.57;;;;;;;;;;4978401;28;20033;-76
2022/07/31 00:14:09;;;;;;;7.43;6.70;;;;;;;;;;4981665;28;20061;-76
2022/07/31 00:16:34;;;;;;;8.05;7.30;;;;;;;;;;4981150;28;20030;-75
2022/07/31 00:18:59;;;;;;;9.45;8.45;;;;;;;;;;4977262;28;20054;-75
2022/07/31 00:21:25;;;;;;;9.43;8.63;;;;;;;;;;4979866;28;20030;-76
2022/07/31 00:23:50;;;;;;;9.77;8.95;;;;;;;;;;4975124;28;20100;-75
2022/07/31 00:26:16;;;;;;;8.75;8.02;;;;;;;;;;4972318;28;20027;-75
2022/07/31 00:28:41;;;;;;;13.20;9.48;;;;;;;;;;4977609;28;20060;-75
2022/07/31 00:31:07;;;;;;;9.25;8.05;;;;;;;;;;4981465;28;20319;-75
2022/07/31 00:33:32;;;;;;;8.00;7.10;;;;;;;;;;4980048;28;20026;-74
2022/07/31 00:35:57;;;;;;;7.47;6.80;;;;;;;;;;4980374;28;20081;-75
2022/07/31 00:38:23;;;;;;;7.70;6.88;;;;;;;;;;4980328;28;20030;-76
2022/07/31 00:40:49;;;;;;;9.32;6.95;;;;;;;;;;4978282;28;20038;-74
2022/07/31 00:43:15;;;;;;;6.18;5.63;;;;;;;;;;4982389;28;20031;-75
2022/07/31 00:45:40;;;;;;;9.50;7.00;;;;;;;;;;4971889;28;20037;-75
2022/07/31 00:48:05;;;;;;;7.30;6.60;;;;;;;;;;4974938;28;20023;-75
2022/07/31 00:50:31;;;;;;;10.05;6.30;;;;;;;;;;4980909;28;20034;-75
2022/07/31 00:52:56;;;;;;;9.15;7.28;;;;;;;;;;4979990;28;20026;-76
2022/07/31 00:55:21;;;;;;;10.25;6.93;;;;;;;;;;4980343;28;20030;-75
2022/07/31 00:57:47;;;;;;;11.80;5.88;;;;;;;;;;4981857;28;20023;-76
2022/07/31 01:00:13;;;;;;;9.93;5.90;;;;;;;;;;4980545;28;20422;-74
2022/07/31 01:02:38;;;;;;;9.35;7.03;;;;;;;;;;4981289;28;20057;-74
2022/07/31 01:05:04;;;;;;;9.60;7.35;;;;;;;;;;4979068;28;20023;-74
2022/07/31 01:07:29;;;;;;;10.05;6.20;;;;;;;;;;4974934;28;20121;-74
2022/07/31 01:09:54;;;;;;;6.82;6.22;;;;;;;;;;4980882;28;20022;-74
2022/07/31 01:12:23;;;;;;;8.85;5.85;;;;;;;;;;4978004;28;20034;-74
2022/07/31 01:14:51;;;;;;;6.38;5.57;;;;;;;;;;4979370;28;20023;-75
2022/07/31 01:17:18;;;;;;;8.50;6.28;;;;;;;;;;4979119;28;20084;-75
2022/07/31 01:19:44;;;;;;;6.07;5.57;;;;;;;;;;4979185;28;20150;-75
2022/07/31 01:22:28;;;;;;;6.00;5.40;;;;;;;;;;4979646;28;20033;-75
2022/07/31 01:24:56;;;;;;;6.97;5.28;;;;;;;;;;4981578;28;20096;-74
2022/07/31 01:27:27;;;;;;;7.35;6.30;;;;;;;;;;4979361;28;20030;-74
2022/07/31 01:29:55;;;;;;;8.68;5.72;;;;;;;;;;4979168;28;20034;-74
2022/07/31 01:32:40;;;;;;;6.72;6.10;;;;;;;;;;4981355;28;20041;-74
2022/07/31 01:35:10;;;;;;;5.88;5.35;;;;;;;;;;4979596;28;20061;-74
2022/07/31 01:37:39;;;;;;;6.25;5.03;;;;;;;;;;4979922;28;20030;-74
2022/07/31 01:40:08;;;;;;;9.43;5.72;;;;;;;;;;4978748;28;20117;-74
2022/07/31 01:42:36;;;;;;;7.90;5.88;;;;;;;;;;4979708;28;20026;-73
2022/07/31 01:45:02;;;;;;;6.45;5.85;;;;;;;;;;4979908;28;20030;-75
2022/07/31 01:47:29;;;;;;;7.50;6.03;;;;;;;;;;4977640;28;20117;-75
2022/07/31 01:49:57;;;;;;;8.82;7.30;;;;;;;;;;4970303;28;20671;-74
2022/07/31 01:52:24;;;;;;;7.10;6.45;;;;;;;;;;4971482;28;20878;-75
2022/07/31 01:54:50;;;;;;;7.15;6.55;;;;;;;;;;4977515;28;20068;-74
2022/07/31 01:57:15;;;;;;;6.63;6.13;;;;;;;;;;4978004;28;20369;-74
2022/07/31 01:59:42;;;;;;;9.52;6.93;;;;;;;;;;4978048;28;20035;-75
2022/07/31 02:02:08;;;;;;;7.85;6.05;;;;;;;;;;4980918;28;20450;-74
2022/07/31 02:04:34;;;;;;;7.05;6.45;;;;;;;;;;4976977;28;20124;-74
2022/07/31 02:07:02;;;;;;;6.60;5.72;;;;;;;;;;4980331;28;20032;-74
2022/07/31 02:09:29;;;;;;;5.33;4.87;;;;;;;;;;4978689;28;20034;-74
2022/07/31 02:11:55;;;;;;;6.28;4.43;;;;;;;;;;4979563;28;20252;-75
2022/07/31 02:14:20;;;;;;;5.30;4.80;;;;;;;;;;4970957;28;20477;-74
2022/07/31 02:16:47;;;;;;;4.32;3.92;;;;;;;;;;4979314;28;20422;-75
2022/07/31 02:19:13;;;;;;;4.80;3.95;;;;;;;;;;4973136;28;20027;-74
2022/07/31 02:21:39;;;;;;;5.55;3.80;;;;;;;;;;4976100;28;20030;-74
2022/07/31 02:24:04;;;;;;;7.05;4.90;;;;;;;;;;4980850;28;20040;-75
2022/07/31 02:26:30;;;;;;;4.93;4.53;;;;;;;;;;4978026;28;20339;-74
2022/07/31 02:28:56;;;;;;;7.43;5.40;;;;;;;;;;4980550;28;20426;-74
2022/07/31 02:31:23;;;;;;;8.95;5.53;;;;;;;;;;4979766;28;20053;-75
2022/07/31 02:33:49;;;;;;;6.50;6.00;;;;;;;;;;4979122;28;20031;-74
2022/07/31 02:36:16;;;;;;;6.10;5.47;;;;;;;;;;4979090;28;20438;-74
2022/07/31 02:38:42;;;;;;;7.18;6.55;;;;;;;;;;4979485;28;20031;-74
2022/07/31 02:41:08;;;;;;;7.38;6.78;;;;;;;;;;4977830;28;20361;-73
2022/07/31 02:43:34;;;;;;;7.18;6.43;;;;;;;;;;4976075;28;20034;-74
2022/07/31 02:46:00;;;;;;;6.22;5.72;;;;;;;;;;4970456;28;20045;-75
2022/07/31 02:48:25;;;;;;;8.23;6.30;;;;;;;;;;4972449;28;20362;-74
2022/07/31 02:50:51;;;;;;;8.25;6.75;;;;;;;;;;4976275;28;20069;-75
2022/07/31 02:53:16;;;;;;;8.05;7.35;;;;;;;;;;4977534;28;20068;-75
2022/07/31 02:55:45;;;;;;;9.30;6.43;;;;;;;;;;4976914;28;20081;-74
2022/07/31 02:58:10;;;;;;;6.63;6.00;;;;;;;;;;4976660;28;20117;-75
2022/07/31 03:00:36;;;;;;;8.82;6.35;;;;;;;;;;4972682;28;20113;-75
2022/07/31 03:03:01;;;;;;;6.30;5.70;;;;;;;;;;4973983;28;20037;-75
2022/07/31 03:05:26;;;;;;;9.65;6.80;;;;;;;;;;4976776;28;20122;-75
2022/07/31 03:07:52;;;;;;;9.10;8.30;;;;;;;;;;4979477;28;20030;-75
2022/07/31 03:10:17;;;;;;;12.80;11.23;;;;;;;;;;4971060;28;20038;-75
2022/07/31 03:12:47;;;;;;;13.00;11.10;;;;;;;;;;4977375;28;20030;-74
2022/07/31 03:15:14;;;;;;;12.43;11.32;;;;;;;;;;4978031;28;20030;-75
2022/07/31 03:17:40;;;;;;;10.80;9.90;;;;;;;;;;4976477;28;20050;-75
2022/07/31 03:20:06;;;;;;;9.65;8.70;;;;;;;;;;4979185;28;20041;-75
2022/07/31 03:22:32;;;;;;;11.48;9.20;;;;;;;;;;4975064;28;20078;-75
2022/07/31 03:24:59;;;;;;;10.15;9.02;;;;;;;;;;4968868;28;20116;-75
2022/07/31 03:27:24;;;;;;;7.75;7.10;;;;;;;;;;4964635;28;20454;-75
2022/07/31 03:29:50;;;;;;;21.35;12.23;;;;;;;;;;4974826;28;20023;-75
2022/07/31 03:32:15;;;;;;;14.43;8.93;;;;;;;;;;4971191;28;20030;-75
2022/07/31 03:34:40;;;;;;;9.70;8.05;;;;;;;;;;4977829;28;20159;-75
2022/07/31 03:37:06;;;;;;;9.20;7.57;;;;;;;;;;4976019;28;20031;-74
2022/07/31 03:39:31;;;;;;;7.40;6.30;;;;;;;;;;4976465;28;20128;-74
2022/07/31 03:41:57;;;;;;;10.40;6.65;;;;;;;;;;4978515;28;20029;-75
2022/07/31 03:44:23;;;;;;;5.57;5.15;;;;;;;;;;4976167;28;20843;-74
2022/07/31 03:46:49;;;;;;;6.72;6.13;;;;;;;;;;4980195;28;20160;-75
2022/07/31 03:49:14;;;;;;;7.85;7.13;;;;;;;;;;4975976;28;20085;-75
2022/07/31 03:51:40;;;;;;;54.72;35.55;;;;;;;;;;4970482;28;20022;-74
2022/07/31 03:54:05;;;;;;;30.15;24.88;;;;;;;;;;4973520;28;20033;-75
2022/07/31 03:56:31;;;;;;;17.92;15.57;;;;;;;;;;4974286;28;20030;-75
2022/07/31 03:58:57;;;;;;;14.07;11.93;;;;;;;;;;4976072;28;20026;-74
2022/07/31 04:01:22;;;;;;;10.63;9.48;;;;;;;;;;4974688;28;20057;-74
2022/07/31 04:03:48;;;;;;;14.10;9.45;;;;;;;;;;4975477;28;20026;-73
2022/07/31 04:06:13;;;;;;;11.30;9.18;;;;;;;;;;4976486;28;20041;-74
2022/07/31 04:08:38;;;;;;;10.57;9.35;;;;;;;;;;4975259;28;20035;-74
2022/07/31 04:11:04;;;;;;;10.82;9.95;;;;;;;;;;4977317;28;20469;-74
2022/07/31 04:13:29;;;;;;;12.00;11.10;;;;;;;;;;4977830;28;20023;-75
2022/07/31 04:15:54;;;;;;;11.43;10.23;;;;;;;;;;4978784;28;20556;-76
2022/07/31 04:18:20;;;;;;;15.02;13.65;;;;;;;;;;4978945;28;20440;-75
2022/07/31 04:20:45;;;;;;;15.82;14.35;;;;;;;;;;4978417;28;20030;-76
2022/07/31 04:23:10;;;;;;;15.70;14.35;;;;;;;;;;4978151;28;20030;-75
2022/07/31 04:25:35;;;;;;;14.27;12.77;;;;;;;;;;4977458;28;20018;-76
2022/07/31 04:28:01;;;;;;;12.25;11.05;;;;;;;;;;4978240;28;20076;-75
2022/07/31 04:30:26;;;;;;;11.40;10.18;;;;;;;;;;4978208;28;20096;-75
2022/07/31 04:32:51;;;;;;;10.95;9.35;;;;;;;;;;4980160;28;20065;-76
2022/07/31 04:35:17;;;;;;;11.20;10.10;;;;;;;;;;4981957;28;20030;-76
2022/07/31 04:37:42;;;;;;;11.02;10.13;;;;;;;;;;4976821;28;20038;-75
2022/07/31 04:40:09;;;;;;;12.55;10.60;;;;;;;;;;4976926;28;20054;-75
2022/07/31 04:42:35;;;;;;;16.52;14.52;;;;;;;;;;4962047;28;20030;-75
2022/07/31 04:45:00;;;;;;;13.52;11.48;;;;;;;;;;4974475;28;20406;-75
2022/07/31 04:47:25;;;;;;;14.45;13.20;;;;;;;;;;4977396;28;20061;-76
2022/07/31 04:49:51;;;;;;;12.68;11.57;;;;;;;;;;4981619;28;20030;-76
2022/07/31 04:52:16;;;;;;;16.83;15.25;;;;;;;;;;4979464;28;20022;-75
2022/07/31 04:54:42;;;;;;;14.60;13.20;;;;;;;;;;4980893;28;20057;-75
2022/07/31 04:57:07;;;;;;;45.20;28.80;;;;;;;;;;4976589;28;20076;-74
2022/07/31 04:59:33;;;;;;;39.92;24.50;;;;;;;;;;4976926;28;20045;-74
2022/07/31 05:01:58;;;;;;;18.95;16.05;;;;;;;;;;4981699;28;20430;-75
2022/07/31 05:04:25;;;;;;;19.38;17.42;;;;;;;;;;4980379;28;20118;-77
2022/07/31 05:06:51;;;;;;;14.70;13.18;;;;;;;;;;4973638;28;20030;-77
2022/07/31 05:09:17;;;;;;;16.92;15.23;;;;;;;;;;4975923;28;20034;-77
2022/07/31 05:11:44;;;;;;;15.07;13.63;;;;;;;;;;4979329;28;20121;-75
2022/07/31 05:14:10;;;;;;;14.40;13.02;;;;;;;;;;4980999;28;20121;-76
2022/07/31 05:16:36;;;;;;;14.93;13.45;;;;;;;;;;4982336;28;20030;-75
2022/07/31 05:19:02;;;;;;;16.63;15.02;;;;;;;;;;4983142;28;20022;-74
2022/07/31 05:21:29;;;;;;;16.55;15.15;;;;;;;;;;4979455;28;20457;-76
2022/07/31 05:23:55;;;;;;;18.95;17.35;;;;;;;;;;4981340;28;20504;-75
2022/07/31 05:26:20;;;;;;;19.33;17.58;;;;;;;;;;4965681;28;20033;-76
2022/07/31 05:28:48;;;;;;;16.80;15.10;;;;;;;;;;4964829;28;20023;-74
2022/07/31 05:31:14;;;;;;;17.10;15.60;;;;;;;;;;4963673;28;20022;-77
2022/07/31 05:33:39;;;;;;;16.48;14.75;;;;;;;;;;4968911;28;20018;-75
2022/07/31 05:36:05;;;;;;;17.50;15.88;;;;;;;;;;4968943;28;20026;-73
2022/07/31 05:38:30;;;;;;;19.40;17.60;;;;;;;;;;4967914;28;20030;-77
2022/07/31 05:40:56;;;;;;;16.00;14.18;;;;;;;;;;4965286;28;20445;-76
2022/07/31 05:43:21;;;;;;;21.77;19.58;;;;;;;;;;4965360;28;20041;-76
2022/07/31 05:45:46;;;;;;;18.88;17.17;;;;;;;;;;4966995;28;20522;-77
2022/07/31 05:48:12;;;;;;;18.45;16.55;;;;;;;;;;4971584;28;20066;-77
2022/07/31 05:50:40;;;;;;;17.70;16.10;;;;;;;;;;4979365;28;20029;-76
2022/07/31 05:53:05;;;;;;;17.40;15.50;;;;;;;;;;4979391;28;20033;-74
2022/07/31 05:55:31;;;;;;;19.92;18.02;;;;;;;;;;4974113;28;20026;-75
2022/07/31 05:57:56;;;;;;;18.90;17.10;;;;;;;;;;4978246;28;20038;-74
2022/07/31 06:00:21;;;;;;;19.33;17.42;;;;;;;;;;4976695;28;20037;-75
2022/07/31 06:02:47;;;;;;;17.70;16.25;;;;;;;;;;4979311;28;20350;-74
2022/07/31 06:05:12;;;;;;;18.40;16.63;;;;;;;;;;4978801;28;20045;-72
2022/07/31 06:07:37;;;;;;;21.98;19.98;;;;;;;;;;4980614;28;20034;-76
2022/07/31 06:10:03;;;;;;;22.77;20.25;;;;;;;;;;4971408;28;20026;-74
2022/07/31 06:12:28;;;;;;;23.73;21.42;;;;;;;;;;4978403;28;20054;-75
2022/07/31 06:14:54;;;;;;;21.00;19.05;;;;;;;;;;4966854;28;20031;-76
2022/07/31 06:17:19;;;;;;;22.55;20.38;;;;;;;;;;4965179;28;20835;-76
2022/07/31 06:19:44;;;;;;;22.45;20.38;;;;;;;;;;4968758;28;20113;-77
2022/07/31 06:22:10;;;;;;;22.33;20.08;;;;;;;;;;4964134;28;20037;-77
2022/07/31 06:24:36;;;;;;;21.52;19.40;;;;;;;;;;4962264;28;20052;-75
2022/07/31 06:27:01;;;;;;;20.92;18.92;;;;;;;;;;4962771;28;20100;-76
2022/07/31 06:29:27;;;;;;;23.58;21.58;;;;;;;;;;4964788;28;20406;-76
2022/07/31 06:31:55;;;;;;;24.60;22.30;;;;;;;;;;4963338;28;20026;-77
2022/07/31 06:34:21;;;;;;;23.52;21.52;;;;;;;;;;4972874;28;20373;-77
2022/07/31 06:36:46;;;;;;;23.45;21.33;;;;;;;;;;4976577;28;20030;-75
2022/07/31 06:39:12;;;;;;;24.55;22.40;;;;;;;;;;4969487;28;20023;-75
2022/07/31 06:41:43;;;;;;;24.23;22.05;;;;;;;;;;4973569;28;20038;-77
2022/07/31 06:44:08;;;;;;;25.17;22.88;;;;;;;;;;4968623;28;20030;-77
2022/07/31 06:46:34;;;;;;;24.90;22.80;;;;;;;;;;4967304;28;20053;-76
2022/07/31 06:49:00;;;;;;;20.58;18.67;;;;;;;;;;4968876;28;20140;-78
2022/07/31 06:51:25;;;;;;;20.45;18.58;;;;;;;;;;4963010;28;20066;-75
2022/07/31 06:53:51;;;;;;;20.08;18.38;;;;;;;;;;4970409;28;20030;-74
2022/07/31 06:56:16;;;;;;;17.35;15.75;;;;;;;;;;4993032;28;20034;-76
2022/07/31 06:58:41;;;;;;;18.05;16.50;;;;;;;;;;4971304;28;20113;-75
2022/07/31 07:01:07;;;;;;;18.42;16.60;;;;;;;;;;4973226;28;20090;-77
2022/07/31 07:03:32;;;;;;;16.73;15.32;;;;;;;;;;4990748;28;20030;-75
2022/07/31 07:05:58;;;;;;;18.08;16.58;;;;;;;;;;4971599;28;20041;-77
2022/07/31 07:08:23;;;;;;;20.67;18.98;;;;;;;;;;4975020;28;20022;-76
2022/07/31 07:10:49;;;;;;;19.58;18.02;;;;;;;;;;4977459;28;20033;-75
2022/07/31 07:13:14;;;;;;;17.98;16.38;;;;;;;;;;4972881;28;20034;-76
2022/07/31 07:15:40;;;;;;;16.40;15.00;;;;;;;;;;4968697;28;20073;-77
2022/07/31 07:18:05;;;;;;;17.15;15.55;;;;;;;;;;4978207;28;20547;-76
2022/07/31 07:20:31;;;;;;;19.02;17.40;;;;;;;;;;4976413;28;20041;-74
2022/07/31 07:22:56;;;;;;;17.58;16.17;;;;;;;;;;4979426;28;20023;-76
2022/07/31 07:25:22;;;;;;;17.50;15.95;;;;;;;;;;4978856;28;20030;-76
2022/07/31 07:27:47;;;;;;;17.38;15.88;;;;;;;;;;4979244;28;20157;-77
2022/07/31 07:30:13;;;;;;;16.33;14.82;;;;;;;;;;4979242;28;20453;-74
2022/07/31 07:32:38;;;;;;;17.38;15.98;;;;;;;;;;4970668;28;20027;-74
2022/07/31 07:35:04;;;;;;;16.45;14.98;;;;;;;;;;4965937;28;20035;-76
2022/07/31 07:37:29;;;;;;;16.15;14.60;;;;;;;;;;4977965;28;20022;-78
2022/07/31 07:39:55;;;;;;;16.58;15.18;;;;;;;;;;4977523;28;20051;-77
2022/07/31 07:42:20;;;;;;;16.98;15.38;;;;;;;;;;4977605;28;20054;-79
2022/07/31 07:44:46;;;;;;;16.00;14.60;;;;;;;;;;4978021;28;20144;-75
2022/07/31 07:47:11;;;;;;;16.75;15.35;;;;;;;;;;4977237;28;20037;-75
2022/07/31 07:49:36;;;;;;;16.60;15.30;;;;;;;;;;4990800;28;20022;-77
2022/07/31 07:52:02;;;;;;;15.02;13.88;;;;;;;;;;4963832;28;20022;-78
2022/07/31 07:54:28;;;;;;;16.52;15.32;;;;;;;;;;4980439;28;20125;-77
2022/07/31 07:56:54;;;;;;;15.25;14.02;;;;;;;;;;4977857;28;21139;-76
2022/07/31 07:59:19;;;;;;;14.30;13.20;;;;;;;;;;4975561;28;20460;-76
2022/07/31 08:01:44;;;;;;;13.93;12.82;;;;;;;;;;4977973;28;20034;-77
2022/07/31 08:04:10;;;;;;;13.63;12.52;;;;;;;;;;4981473;28;20034;-74
2022/07/31 08:06:35;;;;;;;14.30;13.23;;;;;;;;;;4974315;28;20117;-72
2022/07/31 08:09:01;;;;;;;13.38;12.27;;;;;;;;;;4971800;28;20114;-74
2022/07/31 08:11:26;;;;;;;13.13;11.98;;;;;;;;;;4975404;28;20378;-75
2022/07/31 08:13:51;;;;;;;13.77;12.43;;;;;;;;;;4966173;28;20036;-77
2022/07/31 08:16:18;;;;;;;13.55;12.40;;;;;;;;;;4966258;28;20386;-75
2022/07/31 08:18:43;;;;;;;13.38;12.27;;;;;;;;;;4969131;28;20053;-73
2022/07/31 08:21:09;;;;;;;13.52;12.52;;;;;;;;;;4968104;28;20058;-73
2022/07/31 08:23:34;;;;;;;13.48;12.48;;;;;;;;;;4965235;28;20026;-69
2022/07/31 08:25:59;;;;;;;11.65;10.75;;;;;;;;;;4969863;28;20027;-72
2022/07/31 08:28:25;;;;;;;12.07;11.07;;;;;;;;;;4970853;28;20030;-69
2022/07/31 08:30:51;;;;;;;11.45;10.55;;;;;;;;;;4965062;28;20188;-71
2022/07/31 08:33:16;;;;;;;12.23;11.23;;;;;;;;;;4968465;28;20022;-70
2022/07/31 08:35:41;;;;;;;11.52;10.50;;;;;;;;;;4976095;28;20462;-69
2022/07/31 08:38:07;;;;;;;10.50;9.70;;;;;;;;;;4976933;28;20084;-70
2022/07/31 08:40:33;;;;;;;9.23;8.52;;;;;;;;;;4970490;28;20050;-72
2022/07/31 08:42:58;;;;;;;9.65;8.95;;;;;;;;;;4971693;28;20101;-70
2022/07/31 08:45:24;;;;;;;10.63;9.73;;;;;;;;;;4968474;28;20113;-71
2022/07/31 08:47:49;;;;;;;10.63;9.73;;;;;;;;;;4972075;28;20065;-73
2022/07/31 08:50:15;;;;;;;8.82;8.13;;;;;;;;;;4969280;28;20053;-70
2022/07/31 08:52:42;;;;;;;9.40;8.60;;;;;;;;;;4970253;28;20030;-70
2022/07/31 08:55:07;;;;;;;10.13;9.13;;;;;;;;;;4967937;28;20088;-71
2022/07/31 08:57:34;;;;;;;9.13;7.55;;;;;;;;;;4970507;28;20034;-69
2022/07/31 08:59:59;;;;;;;9.40;8.50;;;;;;;;;;4970805;28;20046;-71
2022/07/31 09:02:24;;;;;;;9.80;9.00;;;;;;;;;;4966071;28;20517;-74
2022/07/31 09:04:50;;;;;;;8.98;8.27;;;;;;;;;;4965656;28;20034;-73
2022/07/31 09:07:15;;;;;;;8.32;7.72;;;;;;;;;;4971975;28;20022;-72
2022/07/31 09:09:41;;;;;;;8.07;7.47;;;;;;;;;;4971275;28;20050;-71
2022/07/31 09:12:07;;;;;;;7.88;7.38;;;;;;;;;;4976269;28;20116;-74
2022/07/31 09:14:35;;;;;;;7.60;7.00;;;;;;;;;;4963217;28;20110;-71
2022/07/31 09:17:02;;;;;;;7.97;7.38;;;;;;;;;;4965956;28;20106;-71
2022/07/31 09:19:36;;;;;;;8.27;7.50;;;;;;;;;;4968527;28;20446;-71
2022/07/31 09:22:02;;;;;;;8.25;7.63;;;;;;;;;;4974230;28;20018;-71
2022/07/31 09:24:28;;;;;;;8.85;8.20;;;;;;;;;;4961811;28;20477;-71
2022/07/31 09:27:04;;;;;;;8.52;7.88;;;;;;;;;;4962932;28;20033;-70
2022/07/31 09:29:55;;;;;;;8.77;8.07;;;;;;;;;;4962194;28;20122;-69
2022/07/31 09:32:21;;;;;;;9.57;8.88;;;;;;;;;;4961504;28;20070;-72
2022/07/31 09:34:47;;;;;;;7.88;7.28;;;;;;;;;;4962822;28;20133;-75
2022/07/31 09:37:13;;;;;;;7.53;6.93;;;;;;;;;;4963035;28;20106;-76
2022/07/31 09:39:39;;;;;;;9.13;7.35;;;;;;;;;;4964306;28;20042;-76
2022/07/31 09:42:05;;;;;;;7.85;7.35;;;;;;;;;;4962225;28;20432;-74
2022/07/31 09:44:49;;;;;;;8.00;7.30;;;;;;;;;;4960215;28;20040;-76
2022/07/31 09:47:25;;;;;;;9.15;8.45;;;;;;;;;;4975550;28;20030;-73
2022/07/31 09:49:54;;;;;;;7.78;7.18;;;;;;;;;;4965125;28;20393;-74
2022/07/31 09:52:20;;;;;;;;;;;;;;;;;;4965150;28;20042;-75
2022/07/31 09:54:46;;;;;;;8.20;7.60;;;;;;;;;;4962880;28;20261;-75
2022/07/31 09:57:12;;;;;;;8.02;7.22;;;;;;;;;;4965469;28;20023;-73
2022/07/31 09:59:37;;;;;;;7.30;6.70;;;;;;;;;;4970037;28;22725;-74
2022/07/31 10:02:04;;;;;;;5.82;5.43;;;;;;;;;;4969874;28;20034;-71
2022/07/31 10:04:30;;;;;;;6.22;5.72;;;;;;;;;;4975054;28;20031;-71
2022/07/31 10:06:55;;;;;;;5.82;5.22;;;;;;;;;;4978958;28;20030;-72
2022/07/31 10:09:22;;;;;;;4.95;4.47;;;;;;;;;;4977898;28;20030;-73
2022/07/31 10:11:48;;;;;;;5.38;4.97;;;;;;;;;;4977750;28;20093;-75
2022/07/31 10:14:34;;;;;;;5.30;4.90;;;;;;;;;;4977350;28;20432;-72
2022/07/31 10:17:03;;;;;;;4.45;4.15;;;;;;;;;;4974494;28;20078;-74
2022/07/31 10:19:28;;;;;;;;;;;;;;;;;;4977835;28;20035;-72
2022/07/31 10:21:55;;;;;;;4.35;4.03;;;;;;;;;;4968604;28;19984;-74
2022/07/31 10:24:21;;;;;;;4.43;4.03;;;;;;;;;;4971046;28;20027;-73
2022/07/31 10:26:47;;;;;;;3.72;3.50;;;;;;;;;;4967368;28;20038;-75
2022/07/31 10:29:14;;;;;;;4.20;3.80;;;;;;;;;;4962058;28;20030;-74
2022/07/31 10:31:39;;;;;;;3.75;3.45;;;;;;;;;;4966790;28;20416;-73
2022/07/31 10:34:05;;;;;;;3.60;2.75;;;;;;;;;;4967422;28;20030;-73
2022/07/31 10:36:35;;;;;;;2.75;2.55;;;;;;;;;;4969675;28;20076;-71
2022/07/31 10:39:04;;;;;;;2.97;2.78;;;;;;;;;;4968772;28;20018;-72
2022/07/31 10:41:31;;;;;;;3.10;2.90;;;;;;;;;;4968012;28;20358;-74
2022/07/31 10:44:05;;;;;;;2.70;2.50;;;;;;;;;;4968401;28;20025;-74
2022/07/31 10:46:31;;;;;;;3.67;2.95;;;;;;;;;;4963782;28;20030;-74
2022/07/31 10:48:57;;;;;;;4.93;3.03;;;;;;;;;;4970214;28;20038;-75
2022/07/31 10:51:22;;;;;;;3.15;2.75;;;;;;;;;;4968237;28;20489;-73
2022/07/31 10:53:54;;;;;;;2.50;2.30;;;;;;;;;;4968661;28;20050;-74
2022/07/31 10:56:19;;;;;;;3.45;2.80;;;;;;;;;;4967893;28;20515;-72
2022/07/31 10:58:49;;;;;;;2.75;2.55;;;;;;;;;;4969422;28;20101;-73
2022/07/31 11:01:15;;;;;;;3.38;3.08;;;;;;;;;;4968537;28;20512;-73
2022/07/31 11:03:43;;;;;;;3.00;2.80;;;;;;;;;;4971046;28;20030;-72
2022/07/31 11:06:08;;;;;;;4.63;3.30;;;;;;;;;;4964207;28;20038;-75
2022/07/31 11:08:45;;;;;;;2.85;2.65;;;;;;;;;;4964189;28;20021;-74
2022/07/31 11:11:11;;;;;;;3.00;2.80;;;;;;;;;;4966444;28;20030;-73
2022/07/31 11:13:49;;;;;;;6.10;3.10;;;;;;;;;;4964564;28;20892;-76
2022/07/31 11:16:15;;;;;;;3.30;3.10;;;;;;;;;;4966749;28;20062;-73
2022/07/31 11:18:40;;;;;;;3.60;3.40;;;;;;;;;;4966035;28;20375;-73
2022/07/31 11:21:07;;;;;;;3.05;2.85;;;;;;;;;;4967558;28;20034;-74
2022/07/31 11:23:33;;;;;;;3.03;2.83;;;;;;;;;;4967012;28;20030;-74
2022/07/31 11:25:59;;;;;;;3.20;3.00;;;;;;;;;;4965131;28;20359;-73
2022/07/31 11:28:24;;;;;;;3.70;3.25;;;;;;;;;;4967512;28;20030;-73
2022/07/31 11:30:49;;;;;;;3.53;3.33;;;;;;;;;;4968984;28;20036;-72
2022/07/31 11:33:15;;;;;;;3.40;3.20;;;;;;;;;;4966215;28;20061;-75
2022/07/31 11:35:41;;;;;;;3.25;3.05;;;;;;;;;;4965587;28;20034;-77
2022/07/31 11:38:07;;;;;;;3.90;3.55;;;;;;;;;;4978309;28;20022;-76
2022/07/31 11:40:32;;;;;;;4.20;3.65;;;;;;;;;;4983099;28;20069;-76
2022/07/31 11:42:57;;;;;;;3.67;3.40;;;;;;;;;;4982217;28;20061;-77
2022/07/31 11:45:23;;;;;;;3.70;3.50;;;;;;;;;;4984232;28;20623;-77
2022/07/31 11:47:50;;;;;;;3.72;3.42;;;;;;;;;;4983978;28;20030;-75
2022/07/31 11:50:16;;;;;;;3.58;3.38;;;;;;;;;;4984492;28;20081;-73
2022/07/31 11:52:42;;;;;;;4.63;3.45;;;;;;;;;;4982253;28;20026;-73
2022/07/31 11:55:12;;;;;;;3.70;3.50;;;;;;;;;;4984938;28;20026;-74
2022/07/31 11:57:38;;;;;;;3.53;3.33;;;;;;;;;;4976262;28;20343;-73
2022/07/31 12:00:13;;;;;;;3.92;3.65;;;;;;;;;;4981208;28;20032;-74
2022/07/31 12:02:42;;;;;;;3.97;3.78;;;;;;;;;;4983747;28;20080;-74
2022/07/31 12:05:08;;;;;;;3.90;3.60;;;;;;;;;;4983154;28;20062;-74
2022/07/31 12:07:34;;;;;;;4.32;3.72;;;;;;;;;;4978473;28;20513;-73
2022/07/31 12:10:00;;;;;;;3.55;3.35;;;;;;;;;;4976440;28;20766;-74
2022/07/31 12:12:25;;;;;;;3.15;2.95;;;;;;;;;;4986958;28;20047;-73
2022/07/31 12:14:50;;;;;;;3.22;3.03;;;;;;;;;;4981236;28;20093;-74
2022/07/31 12:17:20;;;;;;;2.70;2.50;;;;;;;;;;4976058;28;20054;-74
2022/07/31 12:19:46;;;;;;;4.30;3.30;;;;;;;;;;4971770;28;20022;-73
2022/07/31 12:22:15;;;;;;;3.92;3.00;;;;;;;;;;4984962;28;20178;-77
2022/07/31 12:24:41;;;;;;;2.42;2.25;;;;;;;;;;4980810;28;20033;-77
2022/07/31 12:27:07;;;;;;;2.50;2.30;;;;;;;;;;4983797;28;20069;-77
2022/07/31 12:29:33;;;;;;;2.50;2.30;;;;;;;;;;4986139;28;20066;-77
2022/07/31 12:31:59;;;;;;;2.38;2.28;;;;;;;;;;4984481;28;20168;-76
2022/07/31 12:34:24;;;;;;;2.47;2.30;;;;;;;;;;4970709;28;20460;-79
2022/07/31 12:37:02;;;;;;;2.60;2.50;;;;;;;;;;4970946;28;20023;-78
2022/07/31 12:39:27;;;;;;;3.95;2.67;;;;;;;;;;4973240;28;20050;-76
2022/07/31 12:41:53;;;;;;;2.75;2.65;;;;;;;;;;4984597;28;20477;-73
2022/07/31 12:44:19;;;;;;;2.80;2.63;;;;;;;;;;4983595;28;20030;-75
2022/07/31 12:46:45;;;;;;;3.20;3.00;;;;;;;;;;4976629;28;20132;-73
2022/07/31 12:49:10;;;;;;;2.55;2.45;;;;;;;;;;4974443;28;20438;-75
2022/07/31 12:51:36;;;;;;;3.00;2.30;;;;;;;;;;4982112;28;20362;-75
2022/07/31 12:54:02;;;;;;;3.63;2.47;;;;;;;;;;4982463;28;20050;-74
2022/07/31 12:56:27;;;;;;;2.30;2.20;;;;;;;;;;4976536;28;20030;-75
2022/07/31 12:58:52;;;;;;;4.13;2.47;;;;;;;;;;4981839;28;20104;-75
2022/07/31 13:01:18;;;;;;;3.10;2.80;;;;;;;;;;4980302;28;20486;-75
2022/07/31 13:03:43;;;;;;;3.55;2.95;;;;;;;;;;4983484;28;20053;-75
2022/07/31 13:06:09;;;;;;;3.80;3.53;;;;;;;;;;4970725;28;20034;-72
2022/07/31 13:08:34;;;;;;;2.80;2.60;;;;;;;;;;4979860;28;20534;-74
2022/07/31 13:10:59;;;;;;;3.58;2.70;;;;;;;;;;4977178;28;20030;-74
2022/07/31 13:13:25;;;;;;;4.43;2.90;;;;;;;;;;4980599;28;20027;-73
2022/07/31 13:15:50;;;;;;;2.60;2.40;;;;;;;;;;4978997;28;20059;-74
2022/07/31 13:18:15;;;;;;;2.92;2.72;;;;;;;;;;4977899;28;20668;-73
2022/07/31 13:20:41;;;;;;;3.05;2.85;;;;;;;;;;4979570;28;20353;-73
2022/07/31 13:23:06;;;;;;;3.05;2.85;;;;;;;;;;4979883;28;20018;-75
2022/07/31 13:25:32;;;;;;;3.33;3.05;;;;;;;;;;4980091;28;20117;-76
2022/07/31 13:27:57;;;;;;;2.85;2.65;;;;;;;;;;4978286;28;20042;-75
2022/07/31 13:30:23;;;;;;;2.53;2.33;;;;;;;;;;4980434;28;20037;-73
2022/07/31 13:32:48;;;;;;;2.88;2.67;;;;;;;;;;4981170;28;20026;-76
2022/07/31 13:35:13;;;;;;;2.85;2.65;;;;;;;;;;4982255;28;20026;-73
2022/07/31 13:37:39;;;;;;;3.00;2.80;;;;;;;;;;4982165;28;20026;-73
2022/07/31 13:40:05;;;;;;;2.80;2.60;;;;;;;;;;4977376;28;20109;-75
2022/07/31 13:42:30;;;;;;;2.92;2.72;;;;;;;;;;4978458;28;20018;-74
2022/07/31 13:44:56;;;;;;;2.95;2.75;;;;;;;;;;4979878;28;20030;-73
2022/07/31 13:47:21;;;;;;;3.13;2.90;;;;;;;;;;4973117;28;20160;-76
2022/07/31 13:49:46;;;;;;;2.90;2.70;;;;;;;;;;4965797;28;20065;-77
2022/07/31 13:52:12;;;;;;;2.80;2.60;;;;;;;;;;4962777;28;20025;-76
2022/07/31 13:54:37;;;;;;;2.40;2.30;;;;;;;;;;4963049;28;20512;-76
2022/07/31 13:57:04;;;;;;;3.75;2.75;;;;;;;;;;4962272;28;20026;-75
2022/07/31 13:59:32;;;;;;;2.95;2.75;;;;;;;;;;4963594;28;20030;-76
2022/07/31 14:01:57;;;;;;;2.65;2.50;;;;;;;;;;4964608;28;20070;-76
2022/07/31 14:04:23;;;;;;;2.50;2.40;;;;;;;;;;4962911;28;20065;-75
2022/07/31 14:06:48;;;;;;;2.92;2.72;;;;;;;;;;4962956;28;20476;-75
2022/07/31 14:09:14;;;;;;;3.35;3.05;;;;;;;;;;4963262;28;20042;-74
2022/07/31 14:11:40;;;;;;;2.95;2.75;;;;;;;;;;4964790;28;20034;-76
2022/07/31 14:14:06;;;;;;;4.22;2.67;;;;;;;;;;4963979;28;20034;-76
2022/07/31 14:16:31;;;;;;;2.78;2.58;;;;;;;;;;4946324;28;20046;-75
2022/07/31 14:18:56;;;;;;;2.85;2.67;;;;;;;;;;4960341;28;20023;-74
2022/07/31 14:21:22;;;;;;;4.40;3.30;;;;;;;;;;4967873;28;20058;-74
2022/07/31 14:23:48;;;;;;;3.35;2.90;;;;;;;;;;4975077;28;20500;-74
2022/07/31 14:26:13;;;;;;;3.13;2.90;;;;;;;;;;4977312;28;20036;-75
2022/07/31 14:28:38;;;;;;;3.95;3.40;;;;;;;;;;4973085;28;20030;-75